sensor_id;sensor_type;location;lat;lon;timestamp;temperature;humidity
78467;SHT31;67759;51.972;5.650;2023-07-16T00:00:05;23.9;42.6
78467;SHT31;67759;51.972;5.650;2023-07-16T00:02:37;23.9;42.2
78467;SHT31;67759;51.972;5.650;2023-07-16T00:05:07;23.9;42.4
78467;SHT31;67759;51.972;5.650;2023-07-16T00:07:37;23.9;42.1
78467;SHT31;67759;51.972;5.650;2023-07-16T00:10:07;23.9;42.2
78467;SHT31;67759;51.972;5.650;2023-07-16T00:12:38;23.9;42.0
78467;SHT31;67759;51.972;5.650;2023-07-16T00:15:08;23.9;41.8
78467;SHT31;67759;51.972;5.650;2023-07-16T00:17:38;23.9;41.8
78467;SHT31;67759;51.972;5.650;2023-07-16T00:20:08;23.9;42.0
78467;SHT31;67759;51.972;5.650;2023-07-16T00:22:40;24.0;42.3
78467;SHT31;67759;51.972;5.650;2023-07-16T00:25:10;24.0;42.4
78467;SHT31;67759;51.972;5.650;2023-07-16T00:27:40;24.0;42.7
78467;SHT31;67759;51.972;5.650;2023-07-16T00:30:12;24.0;42.8
78467;SHT31;67759;51.972;5.650;2023-07-16T00:32:41;24.0;42.7
78467;SHT31;67759;51.972;5.650;2023-07-16T00:35:11;24.0;42.7
78467;SHT31;67759;51.972;5.650;2023-07-16T00:37:41;23.9;43.0
78467;SHT31;67759;51.972;5.650;2023-07-16T00:40:14;23.8;43.4
78467;SHT31;67759;51.972;5.650;2023-07-16T00:42:44;23.7;44.3
78467;SHT31;67759;51.972;5.650;2023-07-16T00:45:14;23.6;44.9
78467;SHT31;67759;51.972;5.650;2023-07-16T00:47:44;23.5;45.4
78467;SHT31;67759;51.972;5.650;2023-07-16T00:50:14;23.4;46.1
78467;SHT31;67759;51.972;5.650;2023-07-16T00:52:44;23.4;46.7
78467;SHT31;67759;51.972;5.650;2023-07-16T00:55:14;23.3;47.1
78467;SHT31;67759;51.972;5.650;2023-07-16T00:57:45;23.2;47.6
78467;SHT31;67759;51.972;5.650;2023-07-16T01:00:15;23.2;47.1
78467;SHT31;67759;51.972;5.650;2023-07-16T01:02:45;23.2;46.7
78467;SHT31;67759;51.972;5.650;2023-07-16T01:05:14;23.2;46.3
78467;SHT31;67759;51.972;5.650;2023-07-16T01:07:52;23.2;46.2
78467;SHT31;67759;51.972;5.650;2023-07-16T01:10:25;23.2;46.1
78467;SHT31;67759;51.972;5.650;2023-07-16T01:12:56;23.1;46.0
78467;SHT31;67759;51.972;5.650;2023-07-16T01:15:27;23.1;46.1
78467;SHT31;67759;51.972;5.650;2023-07-16T01:17:56;23.1;46.2
78467;SHT31;67759;51.972;5.650;2023-07-16T01:20:27;23.1;45.9
78467;SHT31;67759;51.972;5.650;2023-07-16T01:24:10;23.1;46.2
78467;SHT31;67759;51.972;5.650;2023-07-16T01:27:34;23.0;46.3
78467;SHT31;67759;51.972;5.650;2023-07-16T01:30:08;23.0;46.4
78467;SHT31;67759;51.972;5.650;2023-07-16T01:32:39;23.0;46.4
78467;SHT31;67759;51.972;5.650;2023-07-16T01:35:10;23.0;46.7
78467;SHT31;67759;51.972;5.650;2023-07-16T01:37:40;22.9;46.6
78467;SHT31;67759;51.972;5.650;2023-07-16T01:40:11;22.9;46.8
78467;SHT31;67759;51.972;5.650;2023-07-16T01:42:41;22.8;47.0
78467;SHT31;67759;51.972;5.650;2023-07-16T01:45:11;22.8;47.1
78467;SHT31;67759;51.972;5.650;2023-07-16T01:47:52;22.7;47.2
78467;SHT31;67759;51.972;5.650;2023-07-16T01:50:25;22.7;47.3
78467;SHT31;67759;51.972;5.650;2023-07-16T01:52:54;22.7;47.5
78467;SHT31;67759;51.972;5.650;2023-07-16T01:55:24;22.6;47.5
78467;SHT31;67759;51.972;5.650;2023-07-16T01:57:54;22.6;47.5
78467;SHT31;67759;51.972;5.650;2023-07-16T02:00:24;22.6;47.5
78467;SHT31;67759;51.972;5.650;2023-07-16T02:02:54;22.5;47.5
78467;SHT31;67759;51.972;5.650;2023-07-16T02:05:23;22.5;47.7
78467;SHT31;67759;51.972;5.650;2023-07-16T02:07:53;22.5;47.5
78467;SHT31;67759;51.972;5.650;2023-07-16T02:10:23;22.4;47.4
78467;SHT31;67759;51.972;5.650;2023-07-16T02:12:52;22.4;47.5
78467;SHT31;67759;51.972;5.650;2023-07-16T02:15:22;22.4;47.6
78467;SHT31;67759;51.972;5.650;2023-07-16T02:17:52;22.3;47.7
78467;SHT31;67759;51.972;5.650;2023-07-16T02:20:22;22.3;48.0
78467;SHT31;67759;51.972;5.650;2023-07-16T02:22:51;22.3;47.7
78467;SHT31;67759;51.972;5.650;2023-07-16T02:25:22;22.4;47.6
78467;SHT31;67759;51.972;5.650;2023-07-16T02:27:53;22.4;47.4
78467;SHT31;67759;51.972;5.650;2023-07-16T02:30:22;22.4;47.5
78467;SHT31;67759;51.972;5.650;2023-07-16T02:32:52;22.4;47.5
78467;SHT31;67759;51.972;5.650;2023-07-16T02:35:22;22.3;47.5
78467;SHT31;67759;51.972;5.650;2023-07-16T02:37:51;22.3;47.7
78467;SHT31;67759;51.972;5.650;2023-07-16T02:40:22;22.3;47.8
78467;SHT31;67759;51.972;5.650;2023-07-16T02:42:52;22.2;48.1
78467;SHT31;67759;51.972;5.650;2023-07-16T02:45:21;22.2;48.0
78467;SHT31;67759;51.972;5.650;2023-07-16T02:47:51;22.1;48.3
78467;SHT31;67759;51.972;5.650;2023-07-16T02:50:20;22.1;48.6
78467;SHT31;67759;51.972;5.650;2023-07-16T02:52:50;22.1;48.9
78467;SHT31;67759;51.972;5.650;2023-07-16T02:55:20;22.1;48.6
78467;SHT31;67759;51.972;5.650;2023-07-16T02:57:50;22.0;49.1
78467;SHT31;67759;51.972;5.650;2023-07-16T03:00:19;22.0;49.1
78467;SHT31;67759;51.972;5.650;2023-07-16T03:02:49;22.0;49.2
78467;SHT31;67759;51.972;5.650;2023-07-16T03:05:20;22.0;49.3
78467;SHT31;67759;51.972;5.650;2023-07-16T03:07:49;22.0;49.6
78467;SHT31;67759;51.972;5.650;2023-07-16T03:10:20;21.9;49.9
78467;SHT31;67759;51.972;5.650;2023-07-16T03:12:49;21.9;49.9
78467;SHT31;67759;51.972;5.650;2023-07-16T03:15:19;21.9;50.3
78467;SHT31;67759;51.972;5.650;2023-07-16T03:17:48;21.9;50.5
78467;SHT31;67759;51.972;5.650;2023-07-16T03:20:18;21.9;50.6
78467;SHT31;67759;51.972;5.650;2023-07-16T03:22:48;21.9;50.5
78467;SHT31;67759;51.972;5.650;2023-07-16T03:25:17;21.8;51.5
78467;SHT31;67759;51.972;5.650;2023-07-16T03:27:47;21.8;51.7
78467;SHT31;67759;51.972;5.650;2023-07-16T03:30:17;21.8;51.6
78467;SHT31;67759;51.972;5.650;2023-07-16T03:32:48;21.7;51.4
78467;SHT31;67759;51.972;5.650;2023-07-16T03:35:18;21.7;51.2
78467;SHT31;67759;51.972;5.650;2023-07-16T03:37:47;21.6;51.0
78467;SHT31;67759;51.972;5.650;2023-07-16T03:40:23;21.6;51.0
78467;SHT31;67759;51.972;5.650;2023-07-16T03:42:54;21.5;50.8
78467;SHT31;67759;51.972;5.650;2023-07-16T03:45:24;21.5;50.7
78467;SHT31;67759;51.972;5.650;2023-07-16T03:47:54;21.5;50.7
78467;SHT31;67759;51.972;5.650;2023-07-16T03:50:24;21.5;50.4
78467;SHT31;67759;51.972;5.650;2023-07-16T03:52:53;21.5;50.4
78467;SHT31;67759;51.972;5.650;2023-07-16T03:55:23;21.5;50.4
78467;SHT31;67759;51.972;5.650;2023-07-16T03:57:53;21.4;50.4
78467;SHT31;67759;51.972;5.650;2023-07-16T04:00:23;21.4;50.3
78467;SHT31;67759;51.972;5.650;2023-07-16T04:02:53;21.4;50.3
78467;SHT31;67759;51.972;5.650;2023-07-16T04:05:25;21.4;50.1
78467;SHT31;67759;51.972;5.650;2023-07-16T04:07:55;21.4;50.1
78467;SHT31;67759;51.972;5.650;2023-07-16T04:10:25;21.4;49.9
78467;SHT31;67759;51.972;5.650;2023-07-16T04:12:55;21.5;50.2
78467;SHT31;67759;51.972;5.650;2023-07-16T04:15:24;21.5;50.3
78467;SHT31;67759;51.972;5.650;2023-07-16T04:17:54;21.5;50.2
78467;SHT31;67759;51.972;5.650;2023-07-16T04:20:24;21.6;50.3
78467;SHT31;67759;51.972;5.650;2023-07-16T04:22:54;21.6;50.5
78467;SHT31;67759;51.972;5.650;2023-07-16T04:25:24;21.6;50.6
78467;SHT31;67759;51.972;5.650;2023-07-16T04:27:53;21.6;50.6
78467;SHT31;67759;51.972;5.650;2023-07-16T04:30:25;21.6;50.8
78467;SHT31;67759;51.972;5.650;2023-07-16T04:32:55;21.6;50.9
78467;SHT31;67759;51.972;5.650;2023-07-16T04:35:24;21.6;51.0
78467;SHT31;67759;51.972;5.650;2023-07-16T04:37:54;21.6;50.8
78467;SHT31;67759;51.972;5.650;2023-07-16T04:40:24;21.6;50.5
78467;SHT31;67759;51.972;5.650;2023-07-16T04:42:54;21.6;50.7
78467;SHT31;67759;51.972;5.650;2023-07-16T04:45:23;21.6;50.4
78467;SHT31;67759;51.972;5.650;2023-07-16T04:47:53;21.6;50.0
78467;SHT31;67759;51.972;5.650;2023-07-16T04:50:23;21.6;49.9
78467;SHT31;67759;51.972;5.650;2023-07-16T04:52:52;21.7;49.8
78467;SHT31;67759;51.972;5.650;2023-07-16T04:55:22;21.7;49.8
78467;SHT31;67759;51.972;5.650;2023-07-16T04:57:52;21.7;49.7
78467;SHT31;67759;51.972;5.650;2023-07-16T05:00:21;21.7;49.5
78467;SHT31;67759;51.972;5.650;2023-07-16T05:02:51;21.7;49.4
78467;SHT31;67759;51.972;5.650;2023-07-16T05:05:21;21.6;49.5
78467;SHT31;67759;51.972;5.650;2023-07-16T05:07:51;21.7;49.4
78467;SHT31;67759;51.972;5.650;2023-07-16T05:10:21;21.7;49.1
78467;SHT31;67759;51.972;5.650;2023-07-16T05:12:50;21.7;48.7
78467;SHT31;67759;51.972;5.650;2023-07-16T05:15:20;21.7;48.8
78467;SHT31;67759;51.972;5.650;2023-07-16T05:17:50;21.7;48.1
78467;SHT31;67759;51.972;5.650;2023-07-16T05:20:19;21.8;48.2
78467;SHT31;67759;51.972;5.650;2023-07-16T05:22:50;21.8;48.4
78467;SHT31;67759;51.972;5.650;2023-07-16T05:25:20;21.8;48.1
78467;SHT31;67759;51.972;5.650;2023-07-16T05:27:49;21.9;47.8
78467;SHT31;67759;51.972;5.650;2023-07-16T05:30:19;22.0;47.4
78467;SHT31;67759;51.972;5.650;2023-07-16T05:32:49;22.0;47.3
78467;SHT31;67759;51.972;5.650;2023-07-16T05:35:18;22.0;46.9
78467;SHT31;67759;51.972;5.650;2023-07-16T05:37:48;22.0;46.9
78467;SHT31;67759;51.972;5.650;2023-07-16T05:40:17;22.0;46.9
78467;SHT31;67759;51.972;5.650;2023-07-16T05:42:47;22.0;47.3
78467;SHT31;67759;51.972;5.650;2023-07-16T05:45:17;22.1;47.2
78467;SHT31;67759;51.972;5.650;2023-07-16T05:47:46;22.1;46.8
78467;SHT31;67759;51.972;5.650;2023-07-16T05:50:17;22.1;47.2
78467;SHT31;67759;51.972;5.650;2023-07-16T05:52:47;22.1;47.2
78467;SHT31;67759;51.972;5.650;2023-07-16T05:55:17;22.1;47.1
78467;SHT31;67759;51.972;5.650;2023-07-16T05:57:46;22.1;47.1
78467;SHT31;67759;51.972;5.650;2023-07-16T06:00:16;22.2;47.0
78467;SHT31;67759;51.972;5.650;2023-07-16T06:02:48;22.2;46.6
78467;SHT31;67759;51.972;5.650;2023-07-16T06:05:17;22.2;46.5
78467;SHT31;67759;51.972;5.650;2023-07-16T06:07:47;22.3;46.9
78467;SHT31;67759;51.972;5.650;2023-07-16T06:10:17;22.4;46.7
78467;SHT31;67759;51.972;5.650;2023-07-16T06:12:46;22.4;46.2
78467;SHT31;67759;51.972;5.650;2023-07-16T06:15:17;22.5;46.1
78467;SHT31;67759;51.972;5.650;2023-07-16T06:17:47;22.5;46.1
78467;SHT31;67759;51.972;5.650;2023-07-16T06:20:17;22.5;46.2
78467;SHT31;67759;51.972;5.650;2023-07-16T06:22:46;22.6;46.3
78467;SHT31;67759;51.972;5.650;2023-07-16T06:25:16;22.6;46.1
78467;SHT31;67759;51.972;5.650;2023-07-16T06:27:45;22.6;46.2
78467;SHT31;67759;51.972;5.650;2023-07-16T06:30:15;22.7;46.2
78467;SHT31;67759;51.972;5.650;2023-07-16T06:32:45;22.7;46.4
78467;SHT31;67759;51.972;5.650;2023-07-16T06:35:17;22.8;46.1
78467;SHT31;67759;51.972;5.650;2023-07-16T06:37:46;22.9;46.0
78467;SHT31;67759;51.972;5.650;2023-07-16T06:40:18;23.0;45.9
78467;SHT31;67759;51.972;5.650;2023-07-16T06:42:48;23.0;45.2
78467;SHT31;67759;51.972;5.650;2023-07-16T06:45:20;23.1;45.1
78467;SHT31;67759;51.972;5.650;2023-07-16T06:47:49;23.2;45.3
78467;SHT31;67759;51.972;5.650;2023-07-16T06:50:19;23.2;45.4
78467;SHT31;67759;51.972;5.650;2023-07-16T06:52:49;23.3;44.8
78467;SHT31;67759;51.972;5.650;2023-07-16T06:55:19;23.3;44.7
78467;SHT31;67759;51.972;5.650;2023-07-16T06:57:48;23.4;45.1
78467;SHT31;67759;51.972;5.650;2023-07-16T07:00:19;23.4;45.0
78467;SHT31;67759;51.972;5.650;2023-07-16T07:02:50;23.5;44.9
78467;SHT31;67759;51.972;5.650;2023-07-16T07:05:20;23.6;44.7
78467;SHT31;67759;51.972;5.650;2023-07-16T07:07:49;23.7;44.0
78467;SHT31;67759;51.972;5.650;2023-07-16T07:10:20;23.7;44.3
78467;SHT31;67759;51.972;5.650;2023-07-16T07:12:49;23.8;44.3
78467;SHT31;67759;51.972;5.650;2023-07-16T07:15:19;23.9;44.9
78467;SHT31;67759;51.972;5.650;2023-07-16T07:17:49;24.0;44.6
78467;SHT31;67759;51.972;5.650;2023-07-16T07:20:19;24.1;44.5
78467;SHT31;67759;51.972;5.650;2023-07-16T07:22:49;24.1;44.0
78467;SHT31;67759;51.972;5.650;2023-07-16T07:25:21;24.2;44.0
78467;SHT31;67759;51.972;5.650;2023-07-16T07:27:51;24.3;43.6
78467;SHT31;67759;51.972;5.650;2023-07-16T07:30:21;24.3;43.3
78467;SHT31;67759;51.972;5.650;2023-07-16T07:32:52;24.4;43.4
78467;SHT31;67759;51.972;5.650;2023-07-16T07:35:22;24.4;42.8
78467;SHT31;67759;51.972;5.650;2023-07-16T07:37:51;24.5;43.3
78467;SHT31;67759;51.972;5.650;2023-07-16T07:40:23;24.5;43.9
78467;SHT31;67759;51.972;5.650;2023-07-16T07:42:54;24.7;43.1
78467;SHT31;67759;51.972;5.650;2023-07-16T07:45:25;24.7;42.7
78467;SHT31;67759;51.972;5.650;2023-07-16T07:47:55;24.8;42.7
78467;SHT31;67759;51.972;5.650;2023-07-16T07:50:25;24.8;42.6
78467;SHT31;67759;51.972;5.650;2023-07-16T07:52:56;24.9;42.5
78467;SHT31;67759;51.972;5.650;2023-07-16T07:55:26;24.9;42.6
78467;SHT31;67759;51.972;5.650;2023-07-16T07:57:55;24.9;42.8
78467;SHT31;67759;51.972;5.650;2023-07-16T08:00:25;25.0;42.9
78467;SHT31;67759;51.972;5.650;2023-07-16T08:02:54;25.0;42.3
78467;SHT31;67759;51.972;5.650;2023-07-16T08:05:24;25.1;42.2
78467;SHT31;67759;51.972;5.650;2023-07-16T08:07:54;25.1;42.3
78467;SHT31;67759;51.972;5.650;2023-07-16T08:10:24;25.2;43.2
78467;SHT31;67759;51.972;5.650;2023-07-16T08:12:54;25.3;42.4
78467;SHT31;67759;51.972;5.650;2023-07-16T08:15:24;25.4;41.7
78467;SHT31;67759;51.972;5.650;2023-07-16T08:17:53;25.5;41.7
78467;SHT31;67759;51.972;5.650;2023-07-16T08:20:26;25.5;41.2
78467;SHT31;67759;51.972;5.650;2023-07-16T08:22:56;25.6;41.0
78467;SHT31;67759;51.972;5.650;2023-07-16T08:25:26;25.6;40.5
78467;SHT31;67759;51.972;5.650;2023-07-16T08:27:57;25.6;40.6
78467;SHT31;67759;51.972;5.650;2023-07-16T08:30:26;25.6;40.9
78467;SHT31;67759;51.972;5.650;2023-07-16T08:32:58;25.7;40.5
78467;SHT31;67759;51.972;5.650;2023-07-16T08:35:28;25.7;40.8
78467;SHT31;67759;51.972;5.650;2023-07-16T08:37:58;25.8;40.4
78467;SHT31;67759;51.972;5.650;2023-07-16T08:40:27;25.9;40.0
78467;SHT31;67759;51.972;5.650;2023-07-16T08:42:57;26.0;40.2
78467;SHT31;67759;51.972;5.650;2023-07-16T08:45:29;26.1;39.8
78467;SHT31;67759;51.972;5.650;2023-07-16T08:47:59;26.2;40.4
78467;SHT31;67759;51.972;5.650;2023-07-16T08:50:30;26.3;39.6
78467;SHT31;67759;51.972;5.650;2023-07-16T08:53:00;26.3;39.7
78467;SHT31;67759;51.972;5.650;2023-07-16T08:55:31;26.4;39.2
78467;SHT31;67759;51.972;5.650;2023-07-16T08:58:01;26.4;39.0
78467;SHT31;67759;51.972;5.650;2023-07-16T09:00:32;26.5;39.1
78467;SHT31;67759;51.972;5.650;2023-07-16T09:03:02;26.5;38.9
78467;SHT31;67759;51.972;5.650;2023-07-16T09:05:34;26.5;39.4
78467;SHT31;67759;51.972;5.650;2023-07-16T09:08:04;26.5;39.2
78467;SHT31;67759;51.972;5.650;2023-07-16T09:10:34;26.6;38.4
78467;SHT31;67759;51.972;5.650;2023-07-16T09:13:04;26.6;38.3
78467;SHT31;67759;51.972;5.650;2023-07-16T09:15:34;26.6;38.4
78467;SHT31;67759;51.972;5.650;2023-07-16T09:18:05;26.6;38.4
78467;SHT31;67759;51.972;5.650;2023-07-16T09:20:34;26.6;38.5
78467;SHT31;67759;51.972;5.650;2023-07-16T09:23:04;26.5;38.8
78467;SHT31;67759;51.972;5.650;2023-07-16T09:25:35;26.5;39.1
78467;SHT31;67759;51.972;5.650;2023-07-16T09:28:09;26.5;38.7
78467;SHT31;67759;51.972;5.650;2023-07-16T09:30:39;26.5;38.9
78467;SHT31;67759;51.972;5.650;2023-07-16T09:33:14;26.5;39.2
78467;SHT31;67759;51.972;5.650;2023-07-16T09:35:44;26.5;39.7
78467;SHT31;67759;51.972;5.650;2023-07-16T09:38:13;26.5;39.8
78467;SHT31;67759;51.972;5.650;2023-07-16T09:40:44;26.5;39.8
78467;SHT31;67759;51.972;5.650;2023-07-16T09:43:14;26.6;39.6
78467;SHT31;67759;51.972;5.650;2023-07-16T09:45:45;26.7;39.1
78467;SHT31;67759;51.972;5.650;2023-07-16T09:48:15;26.8;39.0
78467;SHT31;67759;51.972;5.650;2023-07-16T09:50:49;26.9;39.6
78467;SHT31;67759;51.972;5.650;2023-07-16T09:53:21;27.0;38.7
78467;SHT31;67759;51.972;5.650;2023-07-16T09:55:52;27.2;38.9
78467;SHT31;67759;51.972;5.650;2023-07-16T09:58:23;27.3;38.6
78467;SHT31;67759;51.972;5.650;2023-07-16T10:00:55;27.4;38.3
78467;SHT31;67759;51.972;5.650;2023-07-16T10:03:25;27.4;38.5
78467;SHT31;67759;51.972;5.650;2023-07-16T10:06:07;27.4;38.3
78467;SHT31;67759;51.972;5.650;2023-07-16T10:08:37;27.5;38.4
78467;SHT31;67759;51.972;5.650;2023-07-16T10:11:17;27.5;38.0
78467;SHT31;67759;51.972;5.650;2023-07-16T10:13:50;27.5;37.5
78467;SHT31;67759;51.972;5.650;2023-07-16T10:16:23;27.5;37.7
78467;SHT31;67759;51.972;5.650;2023-07-16T10:18:58;27.5;38.0
78467;SHT31;67759;51.972;5.650;2023-07-16T10:21:38;27.5;37.8
78467;SHT31;67759;51.972;5.650;2023-07-16T10:24:17;27.5;37.4
78467;SHT31;67759;51.972;5.650;2023-07-16T10:26:49;27.4;37.6
78467;SHT31;67759;51.972;5.650;2023-07-16T10:29:19;27.3;38.1
78467;SHT31;67759;51.972;5.650;2023-07-16T10:31:49;27.3;38.3
78467;SHT31;67759;51.972;5.650;2023-07-16T10:34:22;27.3;38.3
78467;SHT31;67759;51.972;5.650;2023-07-16T10:36:54;27.3;38.1
78467;SHT31;67759;51.972;5.650;2023-07-16T10:39:24;27.2;38.1
78467;SHT31;67759;51.972;5.650;2023-07-16T10:41:56;27.2;37.8
78467;SHT31;67759;51.972;5.650;2023-07-16T10:44:27;27.2;38.1
78467;SHT31;67759;51.972;5.650;2023-07-16T10:46:57;27.2;38.0
78467;SHT31;67759;51.972;5.650;2023-07-16T10:49:30;27.2;38.1
78467;SHT31;67759;51.972;5.650;2023-07-16T10:52:01;27.2;38.5
78467;SHT31;67759;51.972;5.650;2023-07-16T10:54:31;27.2;38.4
78467;SHT31;67759;51.972;5.650;2023-07-16T10:57:01;27.2;38.3
78467;SHT31;67759;51.972;5.650;2023-07-16T10:59:33;27.1;38.4
78467;SHT31;67759;51.972;5.650;2023-07-16T11:02:02;27.0;38.2
78467;SHT31;67759;51.972;5.650;2023-07-16T11:04:35;26.9;38.2
78467;SHT31;67759;51.972;5.650;2023-07-16T11:07:06;26.8;38.6
78467;SHT31;67759;51.972;5.650;2023-07-16T11:09:42;26.8;39.0
78467;SHT31;67759;51.972;5.650;2023-07-16T11:12:14;26.8;39.0
78467;SHT31;67759;51.972;5.650;2023-07-16T11:14:45;26.8;39.7
78467;SHT31;67759;51.972;5.650;2023-07-16T11:17:15;26.8;39.8
78467;SHT31;67759;51.972;5.650;2023-07-16T11:19:47;26.8;39.7
78467;SHT31;67759;51.972;5.650;2023-07-16T11:22:18;26.9;39.6
78467;SHT31;67759;51.972;5.650;2023-07-16T11:24:50;26.9;39.2
78467;SHT31;67759;51.972;5.650;2023-07-16T11:27:21;27.0;39.3
78467;SHT31;67759;51.972;5.650;2023-07-16T11:29:52;27.0;38.9
78467;SHT31;67759;51.972;5.650;2023-07-16T11:32:31;27.1;39.4
78467;SHT31;67759;51.972;5.650;2023-07-16T11:35:04;27.1;39.6
78467;SHT31;67759;51.972;5.650;2023-07-16T11:37:36;27.3;39.5
78467;SHT31;67759;51.972;5.650;2023-07-16T11:40:08;27.4;39.9
78467;SHT31;67759;51.972;5.650;2023-07-16T11:42:39;27.5;39.6
78467;SHT31;67759;51.972;5.650;2023-07-16T11:45:18;27.6;39.8
78467;SHT31;67759;51.972;5.650;2023-07-16T11:47:47;27.8;39.1
78467;SHT31;67759;51.972;5.650;2023-07-16T11:50:17;27.9;38.2
78467;SHT31;67759;51.972;5.650;2023-07-16T11:52:55;28.0;37.9
78467;SHT31;67759;51.972;5.650;2023-07-16T11:55:25;28.1;37.7
78467;SHT31;67759;51.972;5.650;2023-07-16T11:57:55;28.1;37.7
78467;SHT31;67759;51.972;5.650;2023-07-16T12:00:29;28.1;37.7
78467;SHT31;67759;51.972;5.650;2023-07-16T12:02:58;28.1;37.7
78467;SHT31;67759;51.972;5.650;2023-07-16T12:05:28;28.1;38.0
78467;SHT31;67759;51.972;5.650;2023-07-16T12:07:58;28.1;38.4
78467;SHT31;67759;51.972;5.650;2023-07-16T12:10:30;28.1;38.2
78467;SHT31;67759;51.972;5.650;2023-07-16T12:12:59;28.1;38.0
78467;SHT31;67759;51.972;5.650;2023-07-16T12:15:31;28.1;38.3
78467;SHT31;67759;51.972;5.650;2023-07-16T12:18:03;27.9;40.7
78467;SHT31;67759;51.972;5.650;2023-07-16T12:20:33;27.5;41.9
78467;SHT31;67759;51.972;5.650;2023-07-16T12:23:03;27.2;44.5
78467;SHT31;67759;51.972;5.650;2023-07-16T12:25:33;27.0;44.7
78467;SHT31;67759;51.972;5.650;2023-07-16T12:28:03;26.9;44.0
78467;SHT31;67759;51.972;5.650;2023-07-16T12:30:33;26.9;43.8
78467;SHT31;67759;51.972;5.650;2023-07-16T12:33:03;26.9;43.0
78467;SHT31;67759;51.972;5.650;2023-07-16T12:35:33;27.0;42.4
78467;SHT31;67759;51.972;5.650;2023-07-16T12:38:02;27.2;41.9
78467;SHT31;67759;51.972;5.650;2023-07-16T12:40:32;27.3;42.6
78467;SHT31;67759;51.972;5.650;2023-07-16T12:43:07;27.5;41.5
78467;SHT31;67759;51.972;5.650;2023-07-16T12:45:38;27.7;41.1
78467;SHT31;67759;51.972;5.650;2023-07-16T12:48:10;27.8;40.0
78467;SHT31;67759;51.972;5.650;2023-07-16T12:50:39;27.9;39.7
78467;SHT31;67759;51.972;5.650;2023-07-16T12:53:10;28.0;40.2
78467;SHT31;67759;51.972;5.650;2023-07-16T12:55:41;28.1;39.3
78467;SHT31;67759;51.972;5.650;2023-07-16T12:58:11;28.2;38.8
78467;SHT31;67759;51.972;5.650;2023-07-16T13:00:41;28.2;38.4
78467;SHT31;67759;51.972;5.650;2023-07-16T13:03:11;28.2;38.4
78467;SHT31;67759;51.972;5.650;2023-07-16T13:05:44;28.2;38.5
78467;SHT31;67759;51.972;5.650;2023-07-16T13:08:16;28.1;40.1
78467;SHT31;67759;51.972;5.650;2023-07-16T13:10:46;28.0;40.8
78467;SHT31;67759;51.972;5.650;2023-07-16T13:13:15;27.8;42.1
78467;SHT31;67759;51.972;5.650;2023-07-16T13:15:45;27.8;41.4
78467;SHT31;67759;51.972;5.650;2023-07-16T13:18:15;27.8;41.6
78467;SHT31;67759;51.972;5.650;2023-07-16T13:20:45;27.8;40.9
78467;SHT31;67759;51.972;5.650;2023-07-16T13:23:17;27.9;40.4
78467;SHT31;67759;51.972;5.650;2023-07-16T13:25:46;28.0;39.6
78467;SHT31;67759;51.972;5.650;2023-07-16T13:28:20;28.0;39.0
78467;SHT31;67759;51.972;5.650;2023-07-16T13:30:51;28.1;38.9
78467;SHT31;67759;51.972;5.650;2023-07-16T13:33:20;28.2;38.0
78467;SHT31;67759;51.972;5.650;2023-07-16T13:35:50;28.3;37.6
78467;SHT31;67759;51.972;5.650;2023-07-16T13:38:20;28.4;37.7
78467;SHT31;67759;51.972;5.650;2023-07-16T13:40:49;28.5;36.7
78467;SHT31;67759;51.972;5.650;2023-07-16T13:43:19;28.7;37.3
78467;SHT31;67759;51.972;5.650;2023-07-16T13:45:49;28.9;36.8
78467;SHT31;67759;51.972;5.650;2023-07-16T13:48:20;29.1;36.5
78467;SHT31;67759;51.972;5.650;2023-07-16T13:50:49;29.2;35.3
78467;SHT31;67759;51.972;5.650;2023-07-16T13:53:19;29.3;35.6
78467;SHT31;67759;51.972;5.650;2023-07-16T13:55:49;29.3;34.9
78467;SHT31;67759;51.972;5.650;2023-07-16T13:58:20;29.4;35.2
78467;SHT31;67759;51.972;5.650;2023-07-16T14:00:50;29.4;35.3
78467;SHT31;67759;51.972;5.650;2023-07-16T14:03:20;29.5;34.9
78467;SHT31;67759;51.972;5.650;2023-07-16T14:05:50;29.6;34.4
78467;SHT31;67759;51.972;5.650;2023-07-16T14:08:21;29.7;34.9
78467;SHT31;67759;51.972;5.650;2023-07-16T14:10:51;29.8;34.8
78467;SHT31;67759;51.972;5.650;2023-07-16T14:13:21;29.9;33.9
78467;SHT31;67759;51.972;5.650;2023-07-16T14:15:50;30.0;34.1
78467;SHT31;67759;51.972;5.650;2023-07-16T14:18:20;30.1;34.2
78467;SHT31;67759;51.972;5.650;2023-07-16T14:20:49;30.2;34.0
78467;SHT31;67759;51.972;5.650;2023-07-16T14:23:19;30.2;33.3
78467;SHT31;67759;51.972;5.650;2023-07-16T14:25:48;30.3;33.2
78467;SHT31;67759;51.972;5.650;2023-07-16T14:28:18;30.3;33.2
78467;SHT31;67759;51.972;5.650;2023-07-16T14:30:48;30.2;33.2
78467;SHT31;67759;51.972;5.650;2023-07-16T14:33:17;30.2;33.2
78467;SHT31;67759;51.972;5.650;2023-07-16T14:35:47;30.2;33.0
78467;SHT31;67759;51.972;5.650;2023-07-16T14:38:16;30.0;33.5
78467;SHT31;67759;51.972;5.650;2023-07-16T14:40:46;29.9;32.9
78467;SHT31;67759;51.972;5.650;2023-07-16T14:43:18;29.7;33.2
78467;SHT31;67759;51.972;5.650;2023-07-16T14:45:48;29.6;33.6
78467;SHT31;67759;51.972;5.650;2023-07-16T14:48:17;29.5;33.9
78467;SHT31;67759;51.972;5.650;2023-07-16T14:50:50;29.5;34.2
78467;SHT31;67759;51.972;5.650;2023-07-16T14:53:20;29.6;34.1
78467;SHT31;67759;51.972;5.650;2023-07-16T14:55:50;29.7;34.2
78467;SHT31;67759;51.972;5.650;2023-07-16T14:58:20;29.7;33.3
78467;SHT31;67759;51.972;5.650;2023-07-16T15:00:50;29.8;33.6
78467;SHT31;67759;51.972;5.650;2023-07-16T15:03:19;29.8;34.1
78467;SHT31;67759;51.972;5.650;2023-07-16T15:05:49;30.0;34.1
78467;SHT31;67759;51.972;5.650;2023-07-16T15:08:25;30.2;33.3
78467;SHT31;67759;51.972;5.650;2023-07-16T15:10:57;30.3;32.9
78467;SHT31;67759;51.972;5.650;2023-07-16T15:13:27;30.4;32.6
78467;SHT31;67759;51.972;5.650;2023-07-16T15:15:59;30.4;32.3
78467;SHT31;67759;51.972;5.650;2023-07-16T15:18:31;30.5;32.1
78467;SHT31;67759;51.972;5.650;2023-07-16T15:21:01;30.4;32.7
78467;SHT31;67759;51.972;5.650;2023-07-16T15:23:31;30.4;32.0
78467;SHT31;67759;51.972;5.650;2023-07-16T15:26:03;30.5;32.3
78467;SHT31;67759;51.972;5.650;2023-07-16T15:28:34;30.5;32.6
78467;SHT31;67759;51.972;5.650;2023-07-16T15:31:05;30.5;32.4
78467;SHT31;67759;51.972;5.650;2023-07-16T15:33:35;30.5;32.2
78467;SHT31;67759;51.972;5.650;2023-07-16T15:36:04;30.5;32.7
78467;SHT31;67759;51.972;5.650;2023-07-16T15:38:34;30.5;33.1
78467;SHT31;67759;51.972;5.650;2023-07-16T15:41:04;30.4;33.6
78467;SHT31;67759;51.972;5.650;2023-07-16T15:43:34;30.3;33.5
78467;SHT31;67759;51.972;5.650;2023-07-16T15:46:03;30.1;34.3
78467;SHT31;67759;51.972;5.650;2023-07-16T15:48:33;29.9;35.0
78467;SHT31;67759;51.972;5.650;2023-07-16T15:51:03;29.8;35.2
78467;SHT31;67759;51.972;5.650;2023-07-16T15:53:32;29.6;35.8
78467;SHT31;67759;51.972;5.650;2023-07-16T15:56:02;29.5;36.1
78467;SHT31;67759;51.972;5.650;2023-07-16T15:58:31;29.4;36.0
78467;SHT31;67759;51.972;5.650;2023-07-16T16:01:01;29.3;36.5
78467;SHT31;67759;51.972;5.650;2023-07-16T16:03:30;29.3;35.9
78467;SHT31;67759;51.972;5.650;2023-07-16T16:06:03;29.3;36.2
78467;SHT31;67759;51.972;5.650;2023-07-16T16:08:33;29.2;36.1
78467;SHT31;67759;51.972;5.650;2023-07-16T16:11:04;29.1;36.1
78467;SHT31;67759;51.972;5.650;2023-07-16T16:13:34;29.0;36.6
78467;SHT31;67759;51.972;5.650;2023-07-16T16:16:06;28.8;37.0
78467;SHT31;67759;51.972;5.650;2023-07-16T16:18:35;28.7;37.2
78467;SHT31;67759;51.972;5.650;2023-07-16T16:21:08;28.6;37.5
78467;SHT31;67759;51.972;5.650;2023-07-16T16:23:38;28.5;37.1